sensor_id;sensor_type;location;lat;lon;timestamp;P1;durP1;ratioP1;P2;durP2;ratioP2
64351;SDS011;50680;52.626;-8.668;2023-01-29T00:01:55;20.80;;;8.73;;
64351;SDS011;50680;52.626;-8.668;2023-01-29T00:04:22;19.10;;;8.65;;
64351;SDS011;50680;52.626;-8.668;2023-01-29T00:06:49;21.88;;;9.02;;
64351;SDS011;50680;52.626;-8.668;2023-01-29T00:09:16;16.20;;;7.68;;
64351;SDS011;50680;52.626;-8.668;2023-01-29T00:11:44;15.88;;;8.25;;
64351;SDS011;50680;52.626;-8.668;2023-01-29T00:14:10;18.88;;;8.57;;
64351;SDS011;50680;52.626;-8.668;2023-01-29T00:16:37;16.70;;;8.15;;
64351;SDS011;50680;52.626;-8.668;2023-01-29T00:19:04;15.23;;;7.25;;
64351;SDS011;50680;52.626;-8.668;2023-01-29T00:21:32;18.95;;;8.20;;
64351;SDS011;50680;52.626;-8.668;2023-01-29T00:23:59;19.20;;;8.27;;
64351;SDS011;50680;52.626;-8.668;2023-01-29T00:26:26;13.98;;;7.63;;
64351;SDS011;50680;52.626;-8.668;2023-01-29T00:28:53;19.05;;;8.43;;
64351;SDS011;50680;52.626;-8.668;2023-01-29T00:31:23;18.48;;;8.63;;
64351;SDS011;50680;52.626;-8.668;2023-01-29T00:33:51;19.27;;;8.90;;
64351;SDS011;50680;52.626;-8.668;2023-01-29T00:36:19;24.50;;;9.48;;
64351;SDS011;50680;52.626;-8.668;2023-01-29T00:38:46;17.58;;;8.40;;
64351;SDS011;50680;52.626;-8.668;2023-01-29T00:41:20;14.70;;;7.90;;
64351;SDS011;50680;52.626;-8.668;2023-01-29T00:44:05;15.48;;;8.05;;
64351;SDS011;50680;52.626;-8.668;2023-01-29T00:46:51;16.55;;;8.02;;
64351;SDS011;50680;52.626;-8.668;2023-01-29T00:49:18;15.65;;;7.05;;
64351;SDS011;50680;52.626;-8.668;2023-01-29T00:51:45;13.35;;;7.05;;
64351;SDS011;50680;52.626;-8.668;2023-01-29T00:54:31;16.02;;;7.22;;
64351;SDS011;50680;52.626;-8.668;2023-01-29T00:56:59;16.15;;;6.72;;
64351;SDS011;50680;52.626;-8.668;2023-01-29T00:59:26;15.32;;;7.05;;
64351;SDS011;50680;52.626;-8.668;2023-01-29T01:01:54;14.27;;;6.78;;
64351;SDS011;50680;52.626;-8.668;2023-01-29T01:04:39;16.48;;;7.00;;
64351;SDS011;50680;52.626;-8.668;2023-01-29T01:07:06;15.70;;;7.28;;
64351;SDS011;50680;52.626;-8.668;2023-01-29T01:09:34;12.95;;;6.50;;
64351;SDS011;50680;52.626;-8.668;2023-01-29T01:12:20;14.75;;;7.07;;
64351;SDS011;50680;52.626;-8.668;2023-01-29T01:14:48;14.48;;;7.28;;
64351;SDS011;50680;52.626;-8.668;2023-01-29T01:17:15;13.63;;;6.47;;
64351;SDS011;50680;52.626;-8.668;2023-01-29T01:19:42;11.95;;;5.93;;
64351;SDS011;50680;52.626;-8.668;2023-01-29T01:22:09;11.45;;;6.00;;
64351;SDS011;50680;52.626;-8.668;2023-01-29T01:24:36;15.95;;;6.93;;
64351;SDS011;50680;52.626;-8.668;2023-01-29T01:27:04;11.95;;;6.60;;
64351;SDS011;50680;52.626;-8.668;2023-01-29T01:29:31;12.48;;;6.47;;
64351;SDS011;50680;52.626;-8.668;2023-01-29T01:31:58;11.65;;;5.97;;
64351;SDS011;50680;52.626;-8.668;2023-01-29T01:34:25;14.95;;;6.78;;
64351;SDS011;50680;52.626;-8.668;2023-01-29T01:36:52;15.70;;;6.93;;
64351;SDS011;50680;52.626;-8.668;2023-01-29T01:39:22;15.70;;;7.15;;
64351;SDS011;50680;52.626;-8.668;2023-01-29T01:41:50;15.75;;;6.60;;
64351;SDS011;50680;52.626;-8.668;2023-01-29T01:47:37;12.27;;;6.22;;
64351;SDS011;50680;52.626;-8.668;2023-01-29T01:52:49;11.70;;;5.80;;
64351;SDS011;50680;52.626;-8.668;2023-01-29T01:55:19;14.23;;;6.38;;
64351;SDS011;50680;52.626;-8.668;2023-01-29T01:57:49;16.80;;;6.43;;
64351;SDS011;50680;52.626;-8.668;2023-01-29T02:00:21;11.68;;;6.25;;
64351;SDS011;50680;52.626;-8.668;2023-01-29T02:02:51;14.10;;;6.82;;
64351;SDS011;50680;52.626;-8.668;2023-01-29T02:05:38;13.50;;;6.63;;
64351;SDS011;50680;52.626;-8.668;2023-01-29T02:08:34;14.27;;;7.30;;
64351;SDS011;50680;52.626;-8.668;2023-01-29T02:11:24;17.45;;;7.68;;
64351;SDS011;50680;52.626;-8.668;2023-01-29T02:13:51;17.23;;;7.38;;
64351;SDS011;50680;52.626;-8.668;2023-01-29T02:16:20;17.88;;;7.65;;
64351;SDS011;50680;52.626;-8.668;2023-01-29T02:18:48;18.35;;;6.90;;
64351;SDS011;50680;52.626;-8.668;2023-01-29T02:22:05;17.60;;;6.70;;
64351;SDS011;50680;52.626;-8.668;2023-01-29T02:35:32;16.02;;;6.53;;
64351;SDS011;50680;52.626;-8.668;2023-01-29T02:40:45;13.95;;;6.30;;
64351;SDS011;50680;52.626;-8.668;2023-01-29T02:45:49;13.07;;;6.05;;
64351;SDS011;50680;52.626;-8.668;2023-01-29T02:48:23;12.65;;;6.05;;
64351;SDS011;50680;52.626;-8.668;2023-01-29T02:50:55;13.82;;;6.07;;
64351;SDS011;50680;52.626;-8.668;2023-01-29T02:53:36;12.73;;;5.82;;
64351;SDS011;50680;52.626;-8.668;2023-01-29T02:59:07;14.15;;;5.43;;
64351;SDS011;50680;52.626;-8.668;2023-01-29T03:02:14;7.82;;;4.45;;
64351;SDS011;50680;52.626;-8.668;2023-01-29T03:04:38;15.68;;;5.18;;
64351;SDS011;50680;52.626;-8.668;2023-01-29T03:07:15;10.30;;;4.30;;
64351;SDS011;50680;52.626;-8.668;2023-01-29T03:10:09;9.20;;;4.38;;
64351;SDS011;50680;52.626;-8.668;2023-01-29T03:12:50;7.78;;;3.65;;
64351;SDS011;50680;52.626;-8.668;2023-01-29T03:15:45;7.38;;;4.38;;
64351;SDS011;50680;52.626;-8.668;2023-01-29T03:18:17;6.95;;;3.15;;
64351;SDS011;50680;52.626;-8.668;2023-01-29T03:20:51;6.97;;;3.85;;
64351;SDS011;50680;52.626;-8.668;2023-01-29T03:23:27;6.93;;;3.25;;
64351;SDS011;50680;52.626;-8.668;2023-01-29T03:26:16;6.65;;;3.33;;
64351;SDS011;50680;52.626;-8.668;2023-01-29T03:29:03;5.60;;;2.70;;
64351;SDS011;50680;52.626;-8.668;2023-01-29T03:31:51;5.93;;;2.58;;
64351;SDS011;50680;52.626;-8.668;2023-01-29T03:34:41;7.07;;;2.88;;
64351;SDS011;50680;52.626;-8.668;2023-01-29T03:37:22;5.20;;;2.90;;
64351;SDS011;50680;52.626;-8.668;2023-01-29T03:40:01;5.78;;;2.65;;
64351;SDS011;50680;52.626;-8.668;2023-01-29T03:43:04;5.97;;;3.08;;
64351;SDS011;50680;52.626;-8.668;2023-01-29T03:45:26;5.43;;;2.63;;
64351;SDS011;50680;52.626;-8.668;2023-01-29T03:50:51;6.60;;;2.30;;
64351;SDS011;50680;52.626;-8.668;2023-01-29T03:53:52;4.18;;;2.35;;
64351;SDS011;50680;52.626;-8.668;2023-01-29T04:02:11;4.40;;;1.70;;
64351;SDS011;50680;52.626;-8.668;2023-01-29T04:04:44;3.20;;;1.55;;
64351;SDS011;50680;52.626;-8.668;2023-01-29T04:07:16;2.35;;;1.70;;
64351;SDS011;50680;52.626;-8.668;2023-01-29T04:10:03;2.10;;;1.20;;
64351;SDS011;50680;52.626;-8.668;2023-01-29T04:12:36;1.98;;;1.20;;
64351;SDS011;50680;52.626;-8.668;2023-01-29T04:15:08;2.85;;;1.02;;
64351;SDS011;50680;52.626;-8.668;2023-01-29T04:17:42;1.45;;;1.00;;
64351;SDS011;50680;52.626;-8.668;2023-01-29T04:20:12;1.30;;;0.90;;
64351;SDS011;50680;52.626;-8.668;2023-01-29T04:22:41;1.65;;;1.00;;
64351;SDS011;50680;52.626;-8.668;2023-01-29T04:25:12;1.05;;;0.73;;
64351;SDS011;50680;52.626;-8.668;2023-01-29T04:33:10;1.30;;;0.85;;
64351;SDS011;50680;52.626;-8.668;2023-01-29T04:44:37;1.63;;;0.73;;
64351;SDS011;50680;52.626;-8.668;2023-01-29T04:52:59;1.17;;;0.80;;
64351;SDS011;50680;52.626;-8.668;2023-01-29T04:58:25;2.15;;;1.10;;
64351;SDS011;50680;52.626;-8.668;2023-01-29T05:00:58;3.47;;;0.80;;
64351;SDS011;50680;52.626;-8.668;2023-01-29T05:03:27;2.88;;;0.90;;
64351;SDS011;50680;52.626;-8.668;2023-01-29T05:05:56;2.53;;;1.05;;
64351;SDS011;50680;52.626;-8.668;2023-01-29T05:08:26;2.38;;;0.93;;
64351;SDS011;50680;52.626;-8.668;2023-01-29T05:10:56;2.60;;;1.30;;
64351;SDS011;50680;52.626;-8.668;2023-01-29T05:13:25;4.70;;;1.20;;
64351;SDS011;50680;52.626;-8.668;2023-01-29T05:15:55;3.45;;;1.20;;
64351;SDS011;50680;52.626;-8.668;2023-01-29T05:18:28;4.35;;;1.08;;
64351;SDS011;50680;52.626;-8.668;2023-01-29T05:20:56;1.98;;;1.05;;
64351;SDS011;50680;52.626;-8.668;2023-01-29T05:23:25;2.60;;;1.30;;
64351;SDS011;50680;52.626;-8.668;2023-01-29T05:25:52;2.42;;;1.23;;
64351;SDS011;50680;52.626;-8.668;2023-01-29T05:28:19;3.03;;;1.20;;
64351;SDS011;50680;52.626;-8.668;2023-01-29T05:30:49;3.35;;;1.35;;
64351;SDS011;50680;52.626;-8.668;2023-01-29T05:33:25;3.05;;;1.23;;
64351;SDS011;50680;52.626;-8.668;2023-01-29T05:35:54;2.90;;;1.30;;
64351;SDS011;50680;52.626;-8.668;2023-01-29T05:38:22;1.58;;;1.05;;
64351;SDS011;50680;52.626;-8.668;2023-01-29T05:40:49;2.95;;;1.38;;
64351;SDS011;50680;52.626;-8.668;2023-01-29T05:43:17;2.45;;;1.20;;
64351;SDS011;50680;52.626;-8.668;2023-01-29T05:45:55;7.53;;;1.40;;
64351;SDS011;50680;52.626;-8.668;2023-01-29T05:48:24;2.40;;;1.23;;
64351;SDS011;50680;52.626;-8.668;2023-01-29T05:50:58;2.58;;;1.48;;
64351;SDS011;50680;52.626;-8.668;2023-01-29T05:53:29;3.75;;;1.65;;
64351;SDS011;50680;52.626;-8.668;2023-01-29T05:55:57;2.85;;;1.48;;
64351;SDS011;50680;52.626;-8.668;2023-01-29T05:58:26;3.42;;;1.50;;
64351;SDS011;50680;52.626;-8.668;2023-01-29T06:00:55;2.80;;;1.50;;
64351;SDS011;50680;52.626;-8.668;2023-01-29T06:03:22;3.72;;;1.55;;
64351;SDS011;50680;52.626;-8.668;2023-01-29T06:05:48;3.28;;;1.95;;
64351;SDS011;50680;52.626;-8.668;2023-01-29T06:08:15;4.18;;;1.30;;
64351;SDS011;50680;52.626;-8.668;2023-01-29T06:10:42;14.02;;;1.60;;
64351;SDS011;50680;52.626;-8.668;2023-01-29T06:13:09;2.50;;;1.33;;
64351;SDS011;50680;52.626;-8.668;2023-01-29T06:15:37;2.95;;;1.20;;
64351;SDS011;50680;52.626;-8.668;2023-01-29T06:18:05;2.92;;;1.30;;
64351;SDS011;50680;52.626;-8.668;2023-01-29T06:20:31;3.53;;;1.50;;
64351;SDS011;50680;52.626;-8.668;2023-01-29T06:22:58;2.38;;;1.30;;
64351;SDS011;50680;52.626;-8.668;2023-01-29T06:25:25;2.80;;;1.30;;
64351;SDS011;50680;52.626;-8.668;2023-01-29T06:27:52;1.60;;;0.90;;
64351;SDS011;50680;52.626;-8.668;2023-01-29T06:30:19;2.85;;;1.13;;
64351;SDS011;50680;52.626;-8.668;2023-01-29T06:32:46;1.75;;;0.90;;
64351;SDS011;50680;52.626;-8.668;2023-01-29T06:35:12;1.88;;;1.10;;
64351;SDS011;50680;52.626;-8.668;2023-01-29T06:37:39;1.90;;;1.15;;
64351;SDS011;50680;52.626;-8.668;2023-01-29T06:40:07;1.63;;;1.05;;
64351;SDS011;50680;52.626;-8.668;2023-01-29T06:42:35;1.27;;;0.80;;
64351;SDS011;50680;52.626;-8.668;2023-01-29T06:45:02;2.35;;;0.90;;
64351;SDS011;50680;52.626;-8.668;2023-01-29T06:47:29;2.00;;;1.10;;
64351;SDS011;50680;52.626;-8.668;2023-01-29T06:49:56;3.22;;;0.88;;
64351;SDS011;50680;52.626;-8.668;2023-01-29T06:52:23;1.58;;;0.75;;
64351;SDS011;50680;52.626;-8.668;2023-01-29T06:54:54;1.48;;;0.88;;
64351;SDS011;50680;52.626;-8.668;2023-01-29T06:57:22;1.88;;;0.90;;
64351;SDS011;50680;52.626;-8.668;2023-01-29T06:59:49;3.22;;;0.90;;
64351;SDS011;50680;52.626;-8.668;2023-01-29T07:02:16;1.60;;;1.00;;
64351;SDS011;50680;52.626;-8.668;2023-01-29T07:04:43;1.80;;;0.80;;
64351;SDS011;50680;52.626;-8.668;2023-01-29T07:07:09;2.83;;;0.90;;
64351;SDS011;50680;52.626;-8.668;2023-01-29T07:09:39;4.18;;;0.80;;
64351;SDS011;50680;52.626;-8.668;2023-01-29T07:12:06;3.60;;;1.00;;
64351;SDS011;50680;52.626;-8.668;2023-01-29T07:14:34;3.60;;;0.90;;
64351;SDS011;50680;52.626;-8.668;2023-01-29T07:17:01;3.10;;;0.93;;
64351;SDS011;50680;52.626;-8.668;2023-01-29T07:19:28;5.95;;;0.90;;
64351;SDS011;50680;52.626;-8.668;2023-01-29T07:21:55;3.42;;;0.73;;
64351;SDS011;50680;52.626;-8.668;2023-01-29T07:24:22;3.78;;;0.90;;
64351;SDS011;50680;52.626;-8.668;2023-01-29T07:26:49;1.88;;;0.80;;
64351;SDS011;50680;52.626;-8.668;2023-01-29T07:29:16;1.30;;;0.80;;
64351;SDS011;50680;52.626;-8.668;2023-01-29T07:31:43;1.98;;;0.82;;
64351;SDS011;50680;52.626;-8.668;2023-01-29T07:34:10;4.80;;;0.90;;
64351;SDS011;50680;52.626;-8.668;2023-01-29T07:36:37;2.60;;;0.82;;
64351;SDS011;50680;52.626;-8.668;2023-01-29T07:39:04;3.88;;;0.90;;
64351;SDS011;50680;52.626;-8.668;2023-01-29T07:41:30;2.60;;;0.90;;
64351;SDS011;50680;52.626;-8.668;2023-01-29T07:43:57;2.80;;;0.98;;
64351;SDS011;50680;52.626;-8.668;2023-01-29T07:46:24;2.22;;;0.85;;
64351;SDS011;50680;52.626;-8.668;2023-01-29T07:48:50;2.38;;;0.90;;
64351;SDS011;50680;52.626;-8.668;2023-01-29T07:51:17;4.70;;;0.80;;
64351;SDS011;50680;52.626;-8.668;2023-01-29T07:53:46;2.17;;;0.75;;
64351;SDS011;50680;52.626;-8.668;2023-01-29T07:56:13;2.35;;;0.70;;
64351;SDS011;50680;52.626;-8.668;2023-01-29T07:58:40;2.30;;;0.75;;
64351;SDS011;50680;52.626;-8.668;2023-01-29T08:01:07;3.17;;;0.70;;
64351;SDS011;50680;52.626;-8.668;2023-01-29T08:03:34;3.88;;;0.88;;
64351;SDS011;50680;52.626;-8.668;2023-01-29T08:06:02;3.33;;;0.75;;
64351;SDS011;50680;52.626;-8.668;2023-01-29T08:08:29;2.85;;;0.70;;
64351;SDS011;50680;52.626;-8.668;2023-01-29T08:10:59;2.90;;;0.80;;
64351;SDS011;50680;52.626;-8.668;2023-01-29T08:13:27;1.65;;;0.70;;
64351;SDS011;50680;52.626;-8.668;2023-01-29T08:15:57;3.60;;;0.85;;
64351;SDS011;50680;52.626;-8.668;2023-01-29T08:18:25;2.97;;;0.70;;
64351;SDS011;50680;52.626;-8.668;2023-01-29T08:20:52;1.15;;;0.70;;
64351;SDS011;50680;52.626;-8.668;2023-01-29T08:23:19;3.33;;;0.70;;
64351;SDS011;50680;52.626;-8.668;2023-01-29T08:25:46;4.85;;;0.60;;
64351;SDS011;50680;52.626;-8.668;2023-01-29T08:28:13;2.88;;;0.60;;
64351;SDS011;50680;52.626;-8.668;2023-01-29T08:30:40;3.53;;;0.60;;
64351;SDS011;50680;52.626;-8.668;2023-01-29T08:33:07;7.25;;;0.52;;
64351;SDS011;50680;52.626;-8.668;2023-01-29T08:35:33;1.77;;;0.60;;
64351;SDS011;50680;52.626;-8.668;2023-01-29T08:38:01;1.90;;;0.60;;
64351;SDS011;50680;52.626;-8.668;2023-01-29T08:40:29;3.53;;;0.50;;
64351;SDS011;50680;52.626;-8.668;2023-01-29T08:43:02;2.10;;;0.68;;
64351;SDS011;50680;52.626;-8.668;2023-01-29T08:45:35;5.03;;;0.68;;
64351;SDS011;50680;52.626;-8.668;2023-01-29T08:48:03;1.85;;;0.50;;
64351;SDS011;50680;52.626;-8.668;2023-01-29T08:50:31;4.88;;;0.60;;
64351;SDS011;50680;52.626;-8.668;2023-01-29T08:53:00;5.28;;;0.70;;
64351;SDS011;50680;52.626;-8.668;2023-01-29T08:55:29;3.03;;;0.50;;
64351;SDS011;50680;52.626;-8.668;2023-01-29T08:57:55;7.57;;;0.60;;
64351;SDS011;50680;52.626;-8.668;2023-01-29T09:00:22;3.90;;;0.43;;
64351;SDS011;50680;52.626;-8.668;2023-01-29T09:02:50;5.63;;;0.70;;
64351;SDS011;50680;52.626;-8.668;2023-01-29T09:05:16;4.30;;;0.73;;
64351;SDS011;50680;52.626;-8.668;2023-01-29T09:07:44;3.40;;;0.50;;
64351;SDS011;50680;52.626;-8.668;2023-01-29T09:10:11;6.00;;;0.60;;
64351;SDS011;50680;52.626;-8.668;2023-01-29T09:12:37;3.47;;;0.50;;
64351;SDS011;50680;52.626;-8.668;2023-01-29T09:15:04;8.38;;;0.60;;
64351;SDS011;50680;52.626;-8.668;2023-01-29T09:17:32;2.45;;;0.55;;
64351;SDS011;50680;52.626;-8.668;2023-01-29T09:19:58;1.88;;;0.60;;
64351;SDS011;50680;52.626;-8.668;2023-01-29T09:22:25;2.58;;;1.10;;
64351;SDS011;50680;52.626;-8.668;2023-01-29T09:24:52;2.85;;;0.50;;
64351;SDS011;50680;52.626;-8.668;2023-01-29T09:27:19;5.93;;;0.55;;
64351;SDS011;50680;52.626;-8.668;2023-01-29T09:29:46;3.65;;;0.45;;
64351;SDS011;50680;52.626;-8.668;2023-01-29T09:32:13;2.83;;;0.50;;
64351;SDS011;50680;52.626;-8.668;2023-01-29T09:34:41;3.42;;;0.80;;
64351;SDS011;50680;52.626;-8.668;2023-01-29T09:37:08;1.10;;;0.50;;
64351;SDS011;50680;52.626;-8.668;2023-01-29T09:39:35;2.15;;;0.70;;
64351;SDS011;50680;52.626;-8.668;2023-01-29T09:42:07;4.55;;;0.73;;
64351;SDS011;50680;52.626;-8.668;2023-01-29T09:47:23;5.65;;;0.80;;
64351;SDS011;50680;52.626;-8.668;2023-01-29T09:49:54;1.55;;;0.43;;
64351;SDS011;50680;52.626;-8.668;2023-01-29T09:52:29;0.82;;;0.50;;
64351;SDS011;50680;52.626;-8.668;2023-01-29T09:55:11;3.75;;;0.75;;
64351;SDS011;50680;52.626;-8.668;2023-01-29T10:00:33;2.38;;;0.47;;
64351;SDS011;50680;52.626;-8.668;2023-01-29T10:14:03;0.88;;;0.43;;
64351;SDS011;50680;52.626;-8.668;2023-01-29T10:16:43;1.35;;;0.63;;
64351;SDS011;50680;52.626;-8.668;2023-01-29T10:27:13;1.77;;;0.40;;
64351;SDS011;50680;52.626;-8.668;2023-01-29T10:29:42;4.22;;;0.50;;
64351;SDS011;50680;52.626;-8.668;2023-01-29T10:32:18;1.35;;;0.50;;
64351;SDS011;50680;52.626;-8.668;2023-01-29T10:34:51;1.95;;;0.50;;
64351;SDS011;50680;52.626;-8.668;2023-01-29T10:37:41;2.67;;;0.60;;
64351;SDS011;50680;52.626;-8.668;2023-01-29T10:40:16;1.67;;;0.40;;
64351;SDS011;50680;52.626;-8.668;2023-01-29T10:45:49;1.40;;;0.40;;
64351;SDS011;50680;52.626;-8.668;2023-01-29T10:48:36;0.50;;;0.30;;
64351;SDS011;50680;52.626;-8.668;2023-01-29T11:02:47;2.60;;;0.50;;
64351;SDS011;50680;52.626;-8.668;2023-01-29T11:05:19;1.85;;;0.45;;
64351;SDS011;50680;52.626;-8.668;2023-01-29T11:07:58;2.42;;;0.35;;
64351;SDS011;50680;52.626;-8.668;2023-01-29T11:10:31;1.15;;;0.40;;
64351;SDS011;50680;52.626;-8.668;2023-01-29T11:13:03;1.13;;;0.47;;
64351;SDS011;50680;52.626;-8.668;2023-01-29T11:15:31;0.68;;;0.50;;
64351;SDS011;50680;52.626;-8.668;2023-01-29T11:18:01;0.93;;;0.30;;
64351;SDS011;50680;52.626;-8.668;2023-01-29T11:20:32;1.58;;;0.35;;
64351;SDS011;50680;52.626;-8.668;2023-01-29T11:22:59;2.15;;;0.60;;
64351;SDS011;50680;52.626;-8.668;2023-01-29T11:25:26;2.42;;;0.35;;
64351;SDS011;50680;52.626;-8.668;2023-01-29T11:27:55;1.27;;;0.50;;
64351;SDS011;50680;52.626;-8.668;2023-01-29T11:30:29;1.17;;;0.45;;
64351;SDS011;50680;52.626;-8.668;2023-01-29T11:35:30;0.93;;;0.50;;
64351;SDS011;50680;52.626;-8.668;2023-01-29T11:38:05;2.63;;;0.40;;
64351;SDS011;50680;52.626;-8.668;2023-01-29T11:40:35;2.20;;;0.55;;
64351;SDS011;50680;52.626;-8.668;2023-01-29T11:43:11;2.80;;;0.60;;
64351;SDS011;50680;52.626;-8.668;2023-01-29T11:45:45;1.20;;;0.40;;
64351;SDS011;50680;52.626;-8.668;2023-01-29T11:48:16;1.33;;;0.40;;
64351;SDS011;50680;52.626;-8.668;2023-01-29T11:50:51;2.88;;;0.60;;
64351;SDS011;50680;52.626;-8.668;2023-01-29T11:53:22;1.67;;;0.52;;
64351;SDS011;50680;52.626;-8.668;2023-01-29T11:56:02;2.22;;;0.90;;
64351;SDS011;50680;52.626;-8.668;2023-01-29T11:58:44;1.85;;;0.60;;
64351;SDS011;50680;52.626;-8.668;2023-01-29T12:01:14;1.48;;;0.43;;
64351;SDS011;50680;52.626;-8.668;2023-01-29T12:03:50;3.92;;;0.55;;
64351;SDS011;50680;52.626;-8.668;2023-01-29T12:06:23;1.38;;;0.50;;
64351;SDS011;50680;52.626;-8.668;2023-01-29T12:08:59;1.33;;;0.60;;
64351;SDS011;50680;52.626;-8.668;2023-01-29T12:11:30;1.60;;;0.82;;
64351;SDS011;50680;52.626;-8.668;2023-01-29T12:14:22;1.50;;;0.73;;
64351;SDS011;50680;52.626;-8.668;2023-01-29T12:17:01;3.72;;;0.82;;
64351;SDS011;50680;52.626;-8.668;2023-01-29T12:19:49;4.72;;;0.70;;
64351;SDS011;50680;52.626;-8.668;2023-01-29T12:22:21;7.35;;;1.08;;
64351;SDS011;50680;52.626;-8.668;2023-01-29T12:25:06;3.22;;;0.80;;
64351;SDS011;50680;52.626;-8.668;2023-01-29T12:27:39;6.75;;;1.17;;
64351;SDS011;50680;52.626;-8.668;2023-01-29T12:30:13;6.57;;;0.88;;
64351;SDS011;50680;52.626;-8.668;2023-01-29T12:35:19;6.75;;;1.20;;
64351;SDS011;50680;52.626;-8.668;2023-01-29T12:38:33;7.43;;;1.02;;
64351;SDS011;50680;52.626;-8.668;2023-01-29T12:40:38;5.97;;;1.40;;
64351;SDS011;50680;52.626;-8.668;2023-01-29T12:43:20;5.40;;;1.42;;
64351;SDS011;50680;52.626;-8.668;2023-01-29T12:45:53;7.47;;;2.10;;
64351;SDS011;50680;52.626;-8.668;2023-01-29T12:48:24;5.20;;;1.65;;
64351;SDS011;50680;52.626;-8.668;2023-01-29T12:50:56;7.93;;;1.30;;
64351;SDS011;50680;52.626;-8.668;2023-01-29T12:53:44;5.63;;;1.02;;
64351;SDS011;50680;52.626;-8.668;2023-01-29T12:56:27;5.22;;;1.02;;
64351;SDS011;50680;52.626;-8.668;2023-01-29T12:58:59;7.88;;;1.42;;
64351;SDS011;50680;52.626;-8.668;2023-01-29T13:01:31;7.05;;;1.75;;
64351;SDS011;50680;52.626;-8.668;2023-01-29T13:04:02;3.95;;;1.20;;
64351;SDS011;50680;52.626;-8.668;2023-01-29T13:06:39;9.20;;;1.05;;
64351;SDS011;50680;52.626;-8.668;2023-01-29T13:09:11;6.88;;;1.00;;
64351;SDS011;50680;52.626;-8.668;2023-01-29T13:14:19;4.78;;;1.20;;
64351;SDS011;50680;52.626;-8.668;2023-01-29T13:16:51;5.68;;;1.20;;
64351;SDS011;50680;52.626;-8.668;2023-01-29T13:22:09;7.40;;;1.20;;
64351;SDS011;50680;52.626;-8.668;2023-01-29T13:25:02;7.72;;;1.27;;
64351;SDS011;50680;52.626;-8.668;2023-01-29T13:27:32;6.53;;;1.27;;
64351;SDS011;50680;52.626;-8.668;2023-01-29T13:30:00;11.27;;;1.05;;
64351;SDS011;50680;52.626;-8.668;2023-01-29T13:32:28;3.78;;;0.98;;
64351;SDS011;50680;52.626;-8.668;2023-01-29T13:35:04;6.72;;;1.25;;
64351;SDS011;50680;52.626;-8.668;2023-01-29T13:37:41;10.00;;;0.80;;
64351;SDS011;50680;52.626;-8.668;2023-01-29T13:40:32;7.10;;;1.17;;
64351;SDS011;50680;52.626;-8.668;2023-01-29T13:43:03;5.72;;;1.10;;
64351;SDS011;50680;52.626;-8.668;2023-01-29T13:45:34;3.60;;;0.70;;
64351;SDS011;50680;52.626;-8.668;2023-01-29T13:48:23;7.85;;;1.00;;
64351;SDS011;50680;52.626;-8.668;2023-01-29T13:51:00;7.57;;;0.75;;
64351;SDS011;50680;52.626;-8.668;2023-01-29T13:53:37;4.70;;;1.23;;
64351;SDS011;50680;52.626;-8.668;2023-01-29T13:59:18;3.10;;;0.75;;
64351;SDS011;50680;52.626;-8.668;2023-01-29T14:06:46;2.30;;;0.80;;
64351;SDS011;50680;52.626;-8.668;2023-01-29T14:09:30;7.30;;;2.05;;
64351;SDS011;50680;52.626;-8.668;2023-01-29T14:12:03;6.05;;;1.50;;
64351;SDS011;50680;52.626;-8.668;2023-01-29T14:17:20;2.78;;;0.70;;
64351;SDS011;50680;52.626;-8.668;2023-01-29T14:19:53;2.33;;;0.90;;
64351;SDS011;50680;52.626;-8.668;2023-01-29T14:22:31;4.25;;;0.88;;
64351;SDS011;50680;52.626;-8.668;2023-01-29T14:25:00;1.80;;;0.50;;
64351;SDS011;50680;52.626;-8.668;2023-01-29T14:27:30;2.70;;;0.60;;
64351;SDS011;50680;52.626;-8.668;2023-01-29T14:30:02;2.88;;;0.50;;
64351;SDS011;50680;52.626;-8.668;2023-01-29T14:32:37;2.25;;;0.80;;
64351;SDS011;50680;52.626;-8.668;2023-01-29T14:35:16;1.92;;;1.02;;
64351;SDS011;50680;52.626;-8.668;2023-01-29T14:37:49;2.28;;;0.60;;
64351;SDS011;50680;52.626;-8.668;2023-01-29T14:43:02;1.50;;;0.70;;
64351;SDS011;50680;52.626;-8.668;2023-01-29T14:45:35;3.05;;;0.60;;
64351;SDS011;50680;52.626;-8.668;2023-01-29T14:56:03;2.80;;;0.70;;
64351;SDS011;50680;52.626;-8.668;2023-01-29T14:58:40;1.90;;;0.70;;
64351;SDS011;50680;52.626;-8.668;2023-01-29T15:01:21;5.07;;;0.85;;
64351;SDS011;50680;52.626;-8.668;2023-01-29T15:04:10;1.80;;;0.70;;
64351;SDS011;50680;52.626;-8.668;2023-01-29T15:06:42;3.80;;;0.80;;
64351;SDS011;50680;52.626;-8.668;2023-01-29T15:09:13;2.83;;;1.00;;
64351;SDS011;50680;52.626;-8.668;2023-01-29T15:14:51;3.17;;;0.80;;
64351;SDS011;50680;52.626;-8.668;2023-01-29T15:17:32;4.25;;;1.33;;
64351;SDS011;50680;52.626;-8.668;2023-01-29T15:22:54;4.22;;;1.33;;
64351;SDS011;50680;52.626;-8.668;2023-01-29T15:25:20;2.78;;;0.95;;
64351;SDS011;50680;52.626;-8.668;2023-01-29T15:27:48;5.65;;;1.33;;
64351;SDS011;50680;52.626;-8.668;2023-01-29T15:30:17;8.73;;;1.25;;
64351;SDS011;50680;52.626;-8.668;2023-01-29T15:32:48;5.85;;;1.15;;
64351;SDS011;50680;52.626;-8.668;2023-01-29T15:38:00;7.28;;;1.50;;
64351;SDS011;50680;52.626;-8.668;2023-01-29T15:40:32;8.63;;;1.38;;
64351;SDS011;50680;52.626;-8.668;2023-01-29T15:42:59;8.15;;;2.25;;
64351;SDS011;50680;52.626;-8.668;2023-01-29T15:45:30;14.18;;;3.15;;
64351;SDS011;50680;52.626;-8.668;2023-01-29T15:48:02;11.30;;;5.50;;
64351;SDS011;50680;52.626;-8.668;2023-01-29T15:50:39;5.82;;;1.90;;
64351;SDS011;50680;52.626;-8.668;2023-01-29T15:53:17;6.75;;;2.47;;
64351;SDS011;50680;52.626;-8.668;2023-01-29T15:55:47;13.90;;;3.33;;
64351;SDS011;50680;52.626;-8.668;2023-01-29T15:58:14;7.07;;;2.10;;
64351;SDS011;50680;52.626;-8.668;2023-01-29T16:00:50;8.30;;;1.70;;
64351;SDS011;50680;52.626;-8.668;2023-01-29T16:03:20;13.27;;;5.00;;
64351;SDS011;50680;52.626;-8.668;2023-01-29T16:05:49;7.03;;;2.45;;
64351;SDS011;50680;52.626;-8.668;2023-01-29T16:08:17;10.63;;;3.67;;
64351;SDS011;50680;52.626;-8.668;2023-01-29T16:10:48;17.25;;;9.48;;
64351;SDS011;50680;52.626;-8.668;2023-01-29T16:13:23;9.30;;;5.03;;
64351;SDS011;50680;52.626;-8.668;2023-01-29T16:15:54;13.68;;;4.22;;
64351;SDS011;50680;52.626;-8.668;2023-01-29T16:18:23;12.65;;;1.98;;
64351;SDS011;50680;52.626;-8.668;2023-01-29T16:20:57;9.00;;;2.40;;
64351;SDS011;50680;52.626;-8.668;2023-01-29T16:23:28;9.60;;;2.22;;
64351;SDS011;50680;52.626;-8.668;2023-01-29T16:26:01;10.90;;;2.97;;
64351;SDS011;50680;52.626;-8.668;2023-01-29T16:28:31;9.48;;;3.20;;
64351;SDS011;50680;52.626;-8.668;2023-01-29T16:30:58;9.88;;;2.38;;
64351;SDS011;50680;52.626;-8.668;2023-01-29T16:33:33;12.07;;;2.13;;
64351;SDS011;50680;52.626;-8.668;2023-01-29T16:36:03;10.23;;;1.83;;
64351;SDS011;50680;52.626;-8.668;2023-01-29T16:38:50;8.18;;;1.80;;
64351;SDS011;50680;52.626;-8.668;2023-01-29T16:51:52;27.08;;;11.02;;
64351;SDS011;50680;52.626;-8.668;2023-01-29T16:54:20;11.20;;;5.68;;
64351;SDS011;50680;52.626;-8.668;2023-01-29T16:56:51;10.55;;;4.32;;
64351;SDS011;50680;52.626;-8.668;2023-01-29T16:59:22;13.93;;;3.05;;
64351;SDS011;50680;52.626;-8.668;2023-01-29T17:01:58;11.45;;;4.00;;
64351;SDS011;50680;52.626;-8.668;2023-01-29T17:04:25;14.32;;;2.67;;
64351;SDS011;50680;52.626;-8.668;2023-01-29T17:06:57;8.95;;;2.67;;
64351;SDS011;50680;52.626;-8.668;2023-01-29T17:09:33;9.43;;;1.63;;
64351;SDS011;50680;52.626;-8.668;2023-01-29T17:12:04;7.35;;;1.38;;
64351;SDS011;50680;52.626;-8.668;2023-01-29T17:14:41;7.43;;;1.60;;
64351;SDS011;50680;52.626;-8.668;2023-01-29T17:17:18;10.55;;;1.45;;
64351;SDS011;50680;52.626;-8.668;2023-01-29T17:19:45;11.32;;;2.08;;
64351;SDS011;50680;52.626;-8.668;2023-01-29T17:22:13;10.63;;;1.55;;
64351;SDS011;50680;52.626;-8.668;2023-01-29T17:24:40;8.07;;;1.38;;
64351;SDS011;50680;52.626;-8.668;2023-01-29T17:27:17;9.68;;;1.70;;